sensor_id;sensor_type;location;lat;lon;timestamp;P1;durP1;ratioP1;P2;durP2;ratioP2
6928;SDS011;3504;52.616;13.238;2024-02-16T00:02:35;10.50;;;6.43;;
6928;SDS011;3504;52.616;13.238;2024-02-16T00:07:37;7.20;;;6.50;;
6928;SDS011;3504;52.616;13.238;2024-02-16T00:12:38;7.33;;;6.20;;
6928;SDS011;3504;52.616;13.238;2024-02-16T00:17:40;6.97;;;6.10;;
6928;SDS011;3504;52.616;13.238;2024-02-16T00:22:43;7.10;;;6.03;;
6928;SDS011;3504;52.616;13.238;2024-02-16T00:27:43;6.97;;;5.90;;
6928;SDS011;3504;52.616;13.238;2024-02-16T00:32:44;8.77;;;5.63;;
6928;SDS011;3504;52.616;13.238;2024-02-16T00:37:47;7.37;;;5.83;;
6928;SDS011;3504;52.616;13.238;2024-02-16T00:42:48;6.27;;;5.53;;
6928;SDS011;3504;52.616;13.238;2024-02-16T00:47:48;7.83;;;5.50;;
6928;SDS011;3504;52.616;13.238;2024-02-16T00:52:49;8.17;;;5.57;;
6928;SDS011;3504;52.616;13.238;2024-02-16T00:57:50;7.03;;;5.80;;
6928;SDS011;3504;52.616;13.238;2024-02-16T01:02:50;5.80;;;5.20;;
6928;SDS011;3504;52.616;13.238;2024-02-16T01:07:52;6.90;;;5.93;;
6928;SDS011;3504;52.616;13.238;2024-02-16T01:12:53;7.03;;;5.63;;
6928;SDS011;3504;52.616;13.238;2024-02-16T01:17:55;6.87;;;6.17;;
6928;SDS011;3504;52.616;13.238;2024-02-16T01:22:56;9.87;;;6.37;;
6928;SDS011;3504;52.616;13.238;2024-02-16T01:27:57;10.07;;;6.47;;
6928;SDS011;3504;52.616;13.238;2024-02-16T01:32:58;10.63;;;7.30;;
6928;SDS011;3504;52.616;13.238;2024-02-16T01:37:59;11.13;;;8.17;;
6928;SDS011;3504;52.616;13.238;2024-02-16T01:43:01;13.93;;;8.90;;
6928;SDS011;3504;52.616;13.238;2024-02-16T01:48:01;11.50;;;8.53;;
6928;SDS011;3504;52.616;13.238;2024-02-16T01:53:02;13.23;;;10.20;;
6928;SDS011;3504;52.616;13.238;2024-02-16T01:58:04;13.77;;;10.87;;
6928;SDS011;3504;52.616;13.238;2024-02-16T02:03:04;17.00;;;11.37;;
6928;SDS011;3504;52.616;13.238;2024-02-16T02:08:09;16.60;;;11.97;;
6928;SDS011;3504;52.616;13.238;2024-02-16T02:13:10;17.20;;;12.50;;
6928;SDS011;3504;52.616;13.238;2024-02-16T02:18:11;16.87;;;12.57;;
6928;SDS011;3504;52.616;13.238;2024-02-16T02:23:11;16.43;;;13.47;;
6928;SDS011;3504;52.616;13.238;2024-02-16T02:28:13;16.57;;;13.47;;
6928;SDS011;3504;52.616;13.238;2024-02-16T02:33:14;18.70;;;14.57;;
6928;SDS011;3504;52.616;13.238;2024-02-16T02:38:14;23.13;;;16.77;;
6928;SDS011;3504;52.616;13.238;2024-02-16T02:43:15;23.57;;;15.97;;
6928;SDS011;3504;52.616;13.238;2024-02-16T02:48:15;20.50;;;15.73;;
6928;SDS011;3504;52.616;13.238;2024-02-16T02:53:18;21.73;;;16.30;;
6928;SDS011;3504;52.616;13.238;2024-02-16T02:58:19;19.80;;;15.50;;
6928;SDS011;3504;52.616;13.238;2024-02-16T03:03:20;21.40;;;15.50;;
6928;SDS011;3504;52.616;13.238;2024-02-16T03:08:21;24.23;;;16.33;;
6928;SDS011;3504;52.616;13.238;2024-02-16T03:13:22;20.57;;;16.17;;
6928;SDS011;3504;52.616;13.238;2024-02-16T03:18:23;20.93;;;16.43;;
6928;SDS011;3504;52.616;13.238;2024-02-16T03:23:24;21.47;;;16.40;;
6928;SDS011;3504;52.616;13.238;2024-02-16T03:28:24;21.73;;;16.67;;
6928;SDS011;3504;52.616;13.238;2024-02-16T03:33:25;22.53;;;17.33;;
6928;SDS011;3504;52.616;13.238;2024-02-16T03:38:26;22.07;;;17.03;;
6928;SDS011;3504;52.616;13.238;2024-02-16T03:43:26;21.93;;;17.23;;
6928;SDS011;3504;52.616;13.238;2024-02-16T03:48:27;20.47;;;16.47;;
6928;SDS011;3504;52.616;13.238;2024-02-16T03:53:28;22.63;;;16.33;;
6928;SDS011;3504;52.616;13.238;2024-02-16T03:58:29;21.80;;;17.80;;
6928;SDS011;3504;52.616;13.238;2024-02-16T04:03:31;24.07;;;17.27;;
6928;SDS011;3504;52.616;13.238;2024-02-16T04:08:31;23.93;;;17.17;;
6928;SDS011;3504;52.616;13.238;2024-02-16T04:13:32;25.60;;;18.03;;
6928;SDS011;3504;52.616;13.238;2024-02-16T04:18:32;21.57;;;16.70;;
6928;SDS011;3504;52.616;13.238;2024-02-16T04:23:33;25.67;;;17.57;;
6928;SDS011;3504;52.616;13.238;2024-02-16T04:28:34;25.07;;;17.77;;
6928;SDS011;3504;52.616;13.238;2024-02-16T04:33:35;26.23;;;17.97;;
6928;SDS011;3504;52.616;13.238;2024-02-16T04:38:36;24.23;;;18.40;;
6928;SDS011;3504;52.616;13.238;2024-02-16T04:43:36;23.97;;;18.47;;
6928;SDS011;3504;52.616;13.238;2024-02-16T04:48:37;27.30;;;18.50;;
6928;SDS011;3504;52.616;13.238;2024-02-16T04:53:37;22.60;;;17.13;;
6928;SDS011;3504;52.616;13.238;2024-02-16T04:58:41;25.07;;;18.50;;
6928;SDS011;3504;52.616;13.238;2024-02-16T05:03:42;25.97;;;18.17;;
6928;SDS011;3504;52.616;13.238;2024-02-16T05:08:43;23.30;;;16.47;;
6928;SDS011;3504;52.616;13.238;2024-02-16T05:13:43;23.13;;;16.77;;
6928;SDS011;3504;52.616;13.238;2024-02-16T05:18:44;24.70;;;17.43;;
6928;SDS011;3504;52.616;13.238;2024-02-16T05:23:44;23.53;;;17.00;;
6928;SDS011;3504;52.616;13.238;2024-02-16T05:28:48;23.00;;;17.33;;
6928;SDS011;3504;52.616;13.238;2024-02-16T05:33:50;24.50;;;17.30;;
6928;SDS011;3504;52.616;13.238;2024-02-16T05:38:51;23.10;;;16.87;;
6928;SDS011;3504;52.616;13.238;2024-02-16T05:43:54;22.53;;;15.83;;
6928;SDS011;3504;52.616;13.238;2024-02-16T05:48:55;23.53;;;16.43;;
6928;SDS011;3504;52.616;13.238;2024-02-16T05:53:55;24.87;;;16.80;;
6928;SDS011;3504;52.616;13.238;2024-02-16T05:58:56;26.80;;;17.07;;
6928;SDS011;3504;52.616;13.238;2024-02-16T06:03:56;22.67;;;16.00;;
6928;SDS011;3504;52.616;13.238;2024-02-16T06:08:57;21.10;;;15.83;;
6928;SDS011;3504;52.616;13.238;2024-02-16T06:13:59;23.50;;;15.87;;
6928;SDS011;3504;52.616;13.238;2024-02-16T06:19:01;21.33;;;14.27;;
6928;SDS011;3504;52.616;13.238;2024-02-16T06:24:01;20.17;;;14.47;;
6928;SDS011;3504;52.616;13.238;2024-02-16T06:29:02;19.60;;;14.13;;
6928;SDS011;3504;52.616;13.238;2024-02-16T06:34:03;19.87;;;14.03;;
6928;SDS011;3504;52.616;13.238;2024-02-16T06:39:03;17.33;;;13.73;;
6928;SDS011;3504;52.616;13.238;2024-02-16T06:44:04;19.40;;;14.33;;
6928;SDS011;3504;52.616;13.238;2024-02-16T06:49:05;18.13;;;13.40;;
6928;SDS011;3504;52.616;13.238;2024-02-16T06:54:06;22.23;;;13.33;;
6928;SDS011;3504;52.616;13.238;2024-02-16T06:59:07;17.77;;;12.83;;
6928;SDS011;3504;52.616;13.238;2024-02-16T07:04:09;18.87;;;12.73;;
6928;SDS011;3504;52.616;13.238;2024-02-16T07:09:10;18.80;;;13.30;;
6928;SDS011;3504;52.616;13.238;2024-02-16T07:14:11;17.57;;;13.10;;
6928;SDS011;3504;52.616;13.238;2024-02-16T07:19:13;18.00;;;13.10;;
6928;SDS011;3504;52.616;13.238;2024-02-16T07:24:13;16.40;;;12.77;;
6928;SDS011;3504;52.616;13.238;2024-02-16T07:29:15;20.03;;;12.67;;
6928;SDS011;3504;52.616;13.238;2024-02-16T07:34:16;16.37;;;12.13;;
6928;SDS011;3504;52.616;13.238;2024-02-16T07:39:17;19.57;;;12.90;;
6928;SDS011;3504;52.616;13.238;2024-02-16T07:44:17;17.07;;;11.77;;
6928;SDS011;3504;52.616;13.238;2024-02-16T07:49:18;14.17;;;11.93;;
6928;SDS011;3504;52.616;13.238;2024-02-16T07:54:18;17.47;;;12.00;;
6928;SDS011;3504;52.616;13.238;2024-02-16T07:59:19;14.10;;;10.47;;
6928;SDS011;3504;52.616;13.238;2024-02-16T08:04:19;14.67;;;10.40;;
6928;SDS011;3504;52.616;13.238;2024-02-16T08:09:20;13.27;;;9.83;;
6928;SDS011;3504;52.616;13.238;2024-02-16T08:14:20;13.40;;;10.10;;
6928;SDS011;3504;52.616;13.238;2024-02-16T08:19:21;13.47;;;9.83;;
6928;SDS011;3504;52.616;13.238;2024-02-16T08:24:21;15.07;;;11.13;;
6928;SDS011;3504;52.616;13.238;2024-02-16T08:29:22;16.10;;;9.93;;
6928;SDS011;3504;52.616;13.238;2024-02-16T08:34:22;13.13;;;9.50;;
6928;SDS011;3504;52.616;13.238;2024-02-16T08:39:26;13.50;;;9.80;;
6928;SDS011;3504;52.616;13.238;2024-02-16T08:44:27;14.00;;;9.13;;
6928;SDS011;3504;52.616;13.238;2024-02-16T08:49:28;11.30;;;8.70;;
6928;SDS011;3504;52.616;13.238;2024-02-16T08:54:31;11.27;;;8.27;;
6928;SDS011;3504;52.616;13.238;2024-02-16T08:59:31;10.90;;;8.23;;
6928;SDS011;3504;52.616;13.238;2024-02-16T09:04:34;10.43;;;7.83;;
6928;SDS011;3504;52.616;13.238;2024-02-16T09:09:34;8.83;;;6.97;;
6928;SDS011;3504;52.616;13.238;2024-02-16T09:14:35;10.57;;;7.83;;
6928;SDS011;3504;52.616;13.238;2024-02-16T09:19:35;10.63;;;6.70;;
6928;SDS011;3504;52.616;13.238;2024-02-16T09:24:36;9.63;;;6.83;;
6928;SDS011;3504;52.616;13.238;2024-02-16T09:29:37;8.60;;;6.23;;
6928;SDS011;3504;52.616;13.238;2024-02-16T09:34:37;6.80;;;5.43;;
6928;SDS011;3504;52.616;13.238;2024-02-16T09:39:38;8.70;;;5.50;;
6928;SDS011;3504;52.616;13.238;2024-02-16T09:44:39;6.33;;;4.90;;
6928;SDS011;3504;52.616;13.238;2024-02-16T09:49:40;9.40;;;5.30;;
6928;SDS011;3504;52.616;13.238;2024-02-16T09:54:40;6.37;;;4.80;;
6928;SDS011;3504;52.616;13.238;2024-02-16T09:59:41;6.43;;;5.33;;
6928;SDS011;3504;52.616;13.238;2024-02-16T10:04:41;6.13;;;5.00;;
6928;SDS011;3504;52.616;13.238;2024-02-16T10:09:42;6.10;;;4.70;;
6928;SDS011;3504;52.616;13.238;2024-02-16T10:14:42;6.43;;;4.77;;
6928;SDS011;3504;52.616;13.238;2024-02-16T10:19:55;5.10;;;4.17;;
6928;SDS011;3504;52.616;13.238;2024-02-16T10:25:07;5.80;;;4.37;;
6928;SDS011;3504;52.616;13.238;2024-02-16T10:30:11;7.83;;;4.83;;
6928;SDS011;3504;52.616;13.238;2024-02-16T10:35:12;4.57;;;4.10;;
6928;SDS011;3504;52.616;13.238;2024-02-16T10:40:15;6.33;;;4.20;;
6928;SDS011;3504;52.616;13.238;2024-02-16T10:45:19;6.07;;;5.03;;
6928;SDS011;3504;52.616;13.238;2024-02-16T10:50:21;5.83;;;4.53;;
6928;SDS011;3504;52.616;13.238;2024-02-16T10:55:22;6.27;;;4.20;;
6928;SDS011;3504;52.616;13.238;2024-02-16T11:00:24;6.27;;;4.53;;
6928;SDS011;3504;52.616;13.238;2024-02-16T11:05:39;5.97;;;4.30;;
6928;SDS011;3504;52.616;13.238;2024-02-16T11:16:01;6.33;;;4.47;;
6928;SDS011;3504;52.616;13.238;2024-02-16T11:21:07;6.77;;;4.03;;
6928;SDS011;3504;52.616;13.238;2024-02-16T11:26:16;5.83;;;4.57;;
6928;SDS011;3504;52.616;13.238;2024-02-16T11:31:17;4.83;;;4.23;;
6928;SDS011;3504;52.616;13.238;2024-02-16T11:36:18;5.80;;;4.77;;
6928;SDS011;3504;52.616;13.238;2024-02-16T11:41:19;7.00;;;4.10;;
6928;SDS011;3504;52.616;13.238;2024-02-16T11:46:22;5.60;;;4.47;;
6928;SDS011;3504;52.616;13.238;2024-02-16T11:51:25;6.70;;;4.83;;
6928;SDS011;3504;52.616;13.238;2024-02-16T11:56:26;6.27;;;4.63;;
6928;SDS011;3504;52.616;13.238;2024-02-16T12:01:27;5.10;;;4.60;;
6928;SDS011;3504;52.616;13.238;2024-02-16T12:06:27;6.87;;;4.53;;
6928;SDS011;3504;52.616;13.238;2024-02-16T12:11:30;5.80;;;4.57;;
6928;SDS011;3504;52.616;13.238;2024-02-16T12:16:30;8.53;;;4.57;;
6928;SDS011;3504;52.616;13.238;2024-02-16T12:21:31;5.13;;;4.33;;
6928;SDS011;3504;52.616;13.238;2024-02-16T12:26:31;6.03;;;4.40;;
6928;SDS011;3504;52.616;13.238;2024-02-16T12:31:32;7.10;;;4.13;;
6928;SDS011;3504;52.616;13.238;2024-02-16T12:36:35;5.43;;;4.17;;
6928;SDS011;3504;52.616;13.238;2024-02-16T12:41:42;4.87;;;3.80;;
6928;SDS011;3504;52.616;13.238;2024-02-16T12:46:43;5.73;;;3.90;;
6928;SDS011;3504;52.616;13.238;2024-02-16T12:51:44;7.27;;;3.87;;
6928;SDS011;3504;52.616;13.238;2024-02-16T12:56:46;4.13;;;3.43;;
6928;SDS011;3504;52.616;13.238;2024-02-16T13:01:48;3.57;;;3.13;;
6928;SDS011;3504;52.616;13.238;2024-02-16T13:06:51;4.70;;;3.50;;
6928;SDS011;3504;52.616;13.238;2024-02-16T13:11:54;5.20;;;2.80;;
6928;SDS011;3504;52.616;13.238;2024-02-16T13:16:55;4.30;;;3.13;;
6928;SDS011;3504;52.616;13.238;2024-02-16T13:21:55;5.00;;;2.90;;
6928;SDS011;3504;52.616;13.238;2024-02-16T13:26:56;5.93;;;3.13;;
6928;SDS011;3504;52.616;13.238;2024-02-16T13:31:56;4.83;;;2.97;;
6928;SDS011;3504;52.616;13.238;2024-02-16T13:36:57;4.43;;;3.20;;
6928;SDS011;3504;52.616;13.238;2024-02-16T13:41:57;4.53;;;2.53;;
6928;SDS011;3504;52.616;13.238;2024-02-16T13:46:58;3.42;;;2.90;;
6928;SDS011;3504;52.616;13.238;2024-02-16T13:51:58;3.20;;;2.80;;
6928;SDS011;3504;52.616;13.238;2024-02-16T13:56:59;4.25;;;2.90;;
6928;SDS011;3504;52.616;13.238;2024-02-16T14:02:00;4.13;;;2.85;;
6928;SDS011;3504;52.616;13.238;2024-02-16T14:07:01;4.07;;;2.90;;
6928;SDS011;3504;52.616;13.238;2024-02-16T14:12:02;5.57;;;3.17;;
6928;SDS011;3504;52.616;13.238;2024-02-16T14:17:03;6.13;;;2.72;;
6928;SDS011;3504;52.616;13.238;2024-02-16T14:22:03;4.03;;;3.00;;
6928;SDS011;3504;52.616;13.238;2024-02-16T14:27:06;5.10;;;2.87;;
6928;SDS011;3504;52.616;13.238;2024-02-16T14:32:07;3.13;;;2.43;;
6928;SDS011;3504;52.616;13.238;2024-02-16T14:37:08;4.87;;;2.90;;
6928;SDS011;3504;52.616;13.238;2024-02-16T14:42:09;5.10;;;3.10;;
6928;SDS011;3504;52.616;13.238;2024-02-16T14:47:09;7.93;;;3.47;;
6928;SDS011;3504;52.616;13.238;2024-02-16T14:52:10;5.10;;;2.97;;
6928;SDS011;3504;52.616;13.238;2024-02-16T14:57:11;4.40;;;2.80;;
6928;SDS011;3504;52.616;13.238;2024-02-16T15:02:12;4.93;;;2.70;;
6928;SDS011;3504;52.616;13.238;2024-02-16T15:07:12;3.73;;;2.60;;
6928;SDS011;3504;52.616;13.238;2024-02-16T15:12:13;3.77;;;2.77;;
6928;SDS011;3504;52.616;13.238;2024-02-16T15:17:16;4.17;;;3.10;;
6928;SDS011;3504;52.616;13.238;2024-02-16T15:22:20;4.33;;;2.73;;
6928;SDS011;3504;52.616;13.238;2024-02-16T15:27:20;3.67;;;2.90;;
6928;SDS011;3504;52.616;13.238;2024-02-16T15:32:21;4.77;;;3.03;;
6928;SDS011;3504;52.616;13.238;2024-02-16T15:37:21;4.53;;;3.07;;
6928;SDS011;3504;52.616;13.238;2024-02-16T15:42:26;5.93;;;2.87;;
6928;SDS011;3504;52.616;13.238;2024-02-16T15:47:29;3.70;;;3.00;;
6928;SDS011;3504;52.616;13.238;2024-02-16T15:52:30;4.53;;;2.80;;
6928;SDS011;3504;52.616;13.238;2024-02-16T15:57:31;4.97;;;2.87;;
6928;SDS011;3504;52.616;13.238;2024-02-16T16:02:32;3.53;;;2.93;;
6928;SDS011;3504;52.616;13.238;2024-02-16T16:07:32;5.87;;;2.77;;
6928;SDS011;3504;52.616;13.238;2024-02-16T16:12:33;4.73;;;2.73;;
6928;SDS011;3504;52.616;13.238;2024-02-16T16:17:33;4.87;;;2.50;;
6928;SDS011;3504;52.616;13.238;2024-02-16T16:22:34;6.33;;;3.27;;
6928;SDS011;3504;52.616;13.238;2024-02-16T16:27:35;4.97;;;3.00;;
6928;SDS011;3504;52.616;13.238;2024-02-16T16:32:36;5.13;;;2.77;;
6928;SDS011;3504;52.616;13.238;2024-02-16T16:37:36;4.70;;;2.80;;
6928;SDS011;3504;52.616;13.238;2024-02-16T16:42:37;6.70;;;3.33;;
6928;SDS011;3504;52.616;13.238;2024-02-16T16:47:37;18.47;;;9.73;;
6928;SDS011;3504;52.616;13.238;2024-02-16T16:52:38;12.80;;;7.00;;
6928;SDS011;3504;52.616;13.238;2024-02-16T16:57:40;10.17;;;6.90;;
6928;SDS011;3504;52.616;13.238;2024-02-16T17:02:40;11.50;;;4.93;;
6928;SDS011;3504;52.616;13.238;2024-02-16T17:07:41;7.83;;;4.87;;
6928;SDS011;3504;52.616;13.238;2024-02-16T17:12:41;6.97;;;4.67;;
6928;SDS011;3504;52.616;13.238;2024-02-16T17:17:43;5.70;;;4.17;;
6928;SDS011;3504;52.616;13.238;2024-02-16T17:22:48;5.67;;;5.07;;
6928;SDS011;3504;52.616;13.238;2024-02-16T17:27:49;5.40;;;4.80;;
6928;SDS011;3504;52.616;13.238;2024-02-16T17:32:50;8.37;;;4.80;;
6928;SDS011;3504;52.616;13.238;2024-02-16T17:37:51;8.10;;;5.90;;
6928;SDS011;3504;52.616;13.238;2024-02-16T17:42:53;7.03;;;5.40;;
6928;SDS011;3504;52.616;13.238;2024-02-16T17:47:55;6.20;;;4.83;;
6928;SDS011;3504;52.616;13.238;2024-02-16T17:52:58;7.30;;;5.00;;
6928;SDS011;3504;52.616;13.238;2024-02-16T17:57:59;4.97;;;4.33;;
6928;SDS011;3504;52.616;13.238;2024-02-16T18:03:00;6.57;;;5.23;;
6928;SDS011;3504;52.616;13.238;2024-02-16T18:08:00;8.93;;;5.93;;
6928;SDS011;3504;52.616;13.238;2024-02-16T18:13:01;9.63;;;6.37;;
6928;SDS011;3504;52.616;13.238;2024-02-16T18:18:01;9.27;;;6.10;;
6928;SDS011;3504;52.616;13.238;2024-02-16T18:23:05;7.50;;;5.73;;
6928;SDS011;3504;52.616;13.238;2024-02-16T18:28:05;7.00;;;5.40;;
6928;SDS011;3504;52.616;13.238;2024-02-16T18:33:06;8.83;;;5.37;;
6928;SDS011;3504;52.616;13.238;2024-02-16T18:38:06;8.63;;;5.03;;
6928;SDS011;3504;52.616;13.238;2024-02-16T18:43:07;9.20;;;5.33;;
6928;SDS011;3504;52.616;13.238;2024-02-16T18:48:10;8.90;;;5.47;;
6928;SDS011;3504;52.616;13.238;2024-02-16T18:53:11;7.53;;;6.00;;
6928;SDS011;3504;52.616;13.238;2024-02-16T18:58:12;9.13;;;5.93;;
6928;SDS011;3504;52.616;13.238;2024-02-16T19:03:13;7.47;;;5.73;;
6928;SDS011;3504;52.616;13.238;2024-02-16T19:08:13;7.67;;;5.83;;
6928;SDS011;3504;52.616;13.238;2024-02-16T19:13:17;11.47;;;6.20;;
6928;SDS011;3504;52.616;13.238;2024-02-16T19:18:20;6.87;;;5.73;;
6928;SDS011;3504;52.616;13.238;2024-02-16T19:23:21;10.93;;;6.33;;
6928;SDS011;3504;52.616;13.238;2024-02-16T19:28:22;8.87;;;6.20;;
6928;SDS011;3504;52.616;13.238;2024-02-16T19:33:22;10.20;;;7.03;;
6928;SDS011;3504;52.616;13.238;2024-02-16T19:38:23;11.63;;;6.50;;
6928;SDS011;3504;52.616;13.238;2024-02-16T19:43:24;9.30;;;7.40;;
6928;SDS011;3504;52.616;13.238;2024-02-16T19:48:24;14.80;;;8.90;;
6928;SDS011;3504;52.616;13.238;2024-02-16T19:53:25;15.90;;;10.80;;
6928;SDS011;3504;52.616;13.238;2024-02-16T19:58:27;15.57;;;10.90;;
6928;SDS011;3504;52.616;13.238;2024-02-16T20:03:28;15.97;;;9.47;;
6928;SDS011;3504;52.616;13.238;2024-02-16T20:08:31;15.33;;;10.43;;
6928;SDS011;3504;52.616;13.238;2024-02-16T20:13:32;12.63;;;9.80;;
6928;SDS011;3504;52.616;13.238;2024-02-16T20:18:34;13.50;;;10.20;;
6928;SDS011;3504;52.616;13.238;2024-02-16T20:23:35;11.67;;;10.10;;
6928;SDS011;3504;52.616;13.238;2024-02-16T20:28:35;15.27;;;11.10;;
6928;SDS011;3504;52.616;13.238;2024-02-16T20:33:36;20.37;;;12.10;;
6928;SDS011;3504;52.616;13.238;2024-02-16T20:38:37;19.17;;;11.47;;
6928;SDS011;3504;52.616;13.238;2024-02-16T20:43:38;18.90;;;11.87;;
6928;SDS011;3504;52.616;13.238;2024-02-16T20:48:39;20.93;;;13.00;;
6928;SDS011;3504;52.616;13.238;2024-02-16T20:53:39;18.33;;;12.60;;
6928;SDS011;3504;52.616;13.238;2024-02-16T20:58:40;18.00;;;13.93;;
6928;SDS011;3504;52.616;13.238;2024-02-16T21:03:40;21.20;;;14.57;;
6928;SDS011;3504;52.616;13.238;2024-02-16T21:08:41;21.37;;;14.13;;
6928;SDS011;3504;52.616;13.238;2024-02-16T21:13:43;20.93;;;14.23;;
6928;SDS011;3504;52.616;13.238;2024-02-16T21:18:44;20.27;;;15.10;;
6928;SDS011;3504;52.616;13.238;2024-02-16T21:23:44;21.00;;;14.63;;
6928;SDS011;3504;52.616;13.238;2024-02-16T21:28:45;20.30;;;14.97;;
6928;SDS011;3504;52.616;13.238;2024-02-16T21:33:46;24.10;;;15.67;;
6928;SDS011;3504;52.616;13.238;2024-02-16T21:38:47;23.10;;;15.60;;
6928;SDS011;3504;52.616;13.238;2024-02-16T21:43:47;21.30;;;15.57;;
6928;SDS011;3504;52.616;13.238;2024-02-16T21:48:49;22.90;;;15.00;;
6928;SDS011;3504;52.616;13.238;2024-02-16T21:53:50;24.17;;;16.10;;
6928;SDS011;3504;52.616;13.238;2024-02-16T21:58:51;22.10;;;15.80;;
6928;SDS011;3504;52.616;13.238;2024-02-16T22:03:52;22.27;;;16.47;;
6928;SDS011;3504;52.616;13.238;2024-02-16T22:08:53;24.17;;;17.00;;
6928;SDS011;3504;52.616;13.238;2024-02-16T22:13:54;29.17;;;17.60;;
6928;SDS011;3504;52.616;13.238;2024-02-16T22:18:54;26.87;;;17.03;;
6928;SDS011;3504;52.616;13.238;2024-02-16T22:23:55;22.80;;;16.90;;
6928;SDS011;3504;52.616;13.238;2024-02-16T22:28:59;21.60;;;16.57;;
6928;SDS011;3504;52.616;13.238;2024-02-16T22:34:00;23.63;;;17.90;;
6928;SDS011;3504;52.616;13.238;2024-02-16T22:39:01;26.57;;;18.63;;
6928;SDS011;3504;52.616;13.238;2024-02-16T22:44:01;22.83;;;17.83;;
6928;SDS011;3504;52.616;13.238;2024-02-16T22:49:03;20.07;;;15.37;;
6928;SDS011;3504;52.616;13.238;2024-02-16T22:54:04;18.03;;;13.13;;
6928;SDS011;3504;52.616;13.238;2024-02-16T22:59:04;14.27;;;11.60;;
6928;SDS011;3504;52.616;13.238;2024-02-16T23:04:05;14.53;;;11.10;;
6928;SDS011;3504;52.616;13.238;2024-02-16T23:09:07;12.47;;;9.83;;
6928;SDS011;3504;52.616;13.238;2024-02-16T23:14:09;12.27;;;10.03;;
6928;SDS011;3504;52.616;13.238;2024-02-16T23:19:09;11.47;;;10.23;;
6928;SDS011;3504;52.616;13.238;2024-02-16T23:24:10;14.30;;;9.53;;
6928;SDS011;3504;52.616;13.238;2024-02-16T23:29:10;12.63;;;9.80;;
6928;SDS011;3504;52.616;13.238;2024-02-16T23:34:11;13.57;;;10.13;;
6928;SDS011;3504;52.616;13.238;2024-02-16T23:39:11;13.53;;;9.57;;
6928;SDS011;3504;52.616;13.238;2024-02-16T23:44:15;10.93;;;9.33;;
6928;SDS011;3504;52.616;13.238;2024-02-16T23:49:15;11.60;;;8.30;;
6928;SDS011;3504;52.616;13.238;2024-02-16T23:54:16;8.53;;;7.23;;
6928;SDS011;3504;52.616;13.238;2024-02-16T23:59:16;7.53;;;6.40;;
